sensor_id;sensor_type;location;lat;lon;timestamp;pressure;altitude;pressure_sealevel;temperature;humidity
68656;BME280;55638;51.122;13.606;2023-03-14T12:12:10;97939.22;;;10.21;75.29
68656;BME280;55638;51.122;13.606;2023-03-14T12:13:49;97935.72;;;10.73;73.80
68656;BME280;55638;51.122;13.606;2023-03-14T12:15:22;97934.69;;;11.33;73.21
68656;BME280;55638;51.122;13.606;2023-03-14T12:16:57;97939.56;;;11.96;72.26
68656;BME280;55638;51.122;13.606;2023-03-14T12:18:35;97925.41;;;12.58;69.70
68656;BME280;55638;51.122;13.606;2023-03-14T12:20:24;97926.66;;;13.25;67.83
68656;BME280;55638;51.122;13.606;2023-03-14T12:22:41;97942.94;;;13.80;67.96
68656;BME280;55638;51.122;13.606;2023-03-14T12:23:53;97948.25;;;14.41;65.49
68656;BME280;55638;51.122;13.606;2023-03-14T12:25:27;97945.78;;;14.86;64.15
68656;BME280;55638;51.122;13.606;2023-03-14T12:27:04;97940.03;;;15.27;60.94
68656;BME280;55638;51.122;13.606;2023-03-14T12:29:24;97944.34;;;15.62;60.52
68656;BME280;55638;51.122;13.606;2023-03-14T12:30:40;97938.69;;;16.01;59.21
68656;BME280;55638;51.122;13.606;2023-03-14T12:32:23;97927.19;;;16.31;52.04
68656;BME280;55638;51.122;13.606;2023-03-14T12:34:03;97932.25;;;16.59;56.07
68656;BME280;55638;51.122;13.606;2023-03-14T12:35:45;97925.09;;;16.83;57.38
68656;BME280;55638;51.122;13.606;2023-03-14T12:37:28;97930.16;;;17.05;53.72
68656;BME280;55638;51.122;13.606;2023-03-14T12:39:13;97937.28;;;17.24;54.41
68656;BME280;55638;51.122;13.606;2023-03-14T12:43:03;97930.41;;;17.40;48.29
68656;BME280;55638;51.122;13.606;2023-03-14T12:44:44;97938.50;;;17.47;49.97
68656;BME280;55638;51.122;13.606;2023-03-14T12:49:35;97923.81;;;17.48;50.65
68656;BME280;55638;51.122;13.606;2023-03-14T12:55:09;97922.91;;;17.35;47.26
68656;BME280;55638;51.122;13.606;2023-03-14T12:57:07;97918.69;;;17.39;49.82
68656;BME280;55638;51.122;13.606;2023-03-14T12:58:49;97918.47;;;17.41;49.48
68656;BME280;55638;51.122;13.606;2023-03-14T13:00:38;97918.25;;;17.43;49.86
68656;BME280;55638;51.122;13.606;2023-03-14T13:02:24;97916.19;;;17.38;48.28
68656;BME280;55638;51.122;13.606;2023-03-14T13:03:57;97925.06;;;17.33;46.46
68656;BME280;55638;51.122;13.606;2023-03-14T13:05:34;97913.16;;;17.28;48.11
68656;BME280;55638;51.122;13.606;2023-03-14T13:07:28;97913.09;;;17.16;44.31
68656;BME280;55638;51.122;13.606;2023-03-14T13:10:56;97905.72;;;16.98;48.82
68656;BME280;55638;51.122;13.606;2023-03-14T13:12:31;97899.16;;;16.87;48.05
68656;BME280;55638;51.122;13.606;2023-03-14T13:14:09;97906.38;;;16.75;47.59
68656;BME280;55638;51.122;13.606;2023-03-14T13:15:44;97912.97;;;16.61;47.35
68656;BME280;55638;51.122;13.606;2023-03-14T13:17:22;97903.66;;;16.50;47.86
68656;BME280;55638;51.122;13.606;2023-03-14T13:19:32;97902.72;;;16.31;45.86
68656;BME280;55638;51.122;13.606;2023-03-14T13:21:21;97903.03;;;16.23;47.23
68656;BME280;55638;51.122;13.606;2023-03-14T13:22:54;97896.81;;;16.16;48.16
68656;BME280;55638;51.122;13.606;2023-03-14T13:24:27;97894.13;;;16.09;48.50
68656;BME280;55638;51.122;13.606;2023-03-14T13:26:00;97902.16;;;15.97;47.81
68656;BME280;55638;51.122;13.606;2023-03-14T13:27:34;97899.91;;;15.88;47.73
68656;BME280;55638;51.122;13.606;2023-03-14T13:29:27;97900.84;;;15.68;42.38
68656;BME280;55638;51.122;13.606;2023-03-14T13:31:02;97895.41;;;15.68;48.06
68656;BME280;55638;51.122;13.606;2023-03-14T13:32:41;97885.03;;;15.59;46.03
68656;BME280;55638;51.122;13.606;2023-03-14T13:34:14;97882.13;;;15.53;48.41
68656;BME280;55638;51.122;13.606;2023-03-14T13:35:49;97878.38;;;15.48;48.28
68656;BME280;55638;51.122;13.606;2023-03-14T13:37:23;97886.56;;;15.41;48.32
68656;BME280;55638;51.122;13.606;2023-03-14T13:38:58;97877.16;;;15.37;48.10
68656;BME280;55638;51.122;13.606;2023-03-14T13:40:32;97861.31;;;15.34;48.38
68656;BME280;55638;51.122;13.606;2023-03-14T13:42:04;97881.97;;;15.35;48.94
68656;BME280;55638;51.122;13.606;2023-03-14T13:43:39;97871.94;;;15.36;48.51
68656;BME280;55638;51.122;13.606;2023-03-14T13:45:13;97876.72;;;15.40;49.47
68656;BME280;55638;51.122;13.606;2023-03-14T13:46:45;97872.31;;;15.46;50.10
68656;BME280;55638;51.122;13.606;2023-03-14T13:48:18;97879.41;;;15.53;49.67
68656;BME280;55638;51.122;13.606;2023-03-14T13:49:51;97874.78;;;15.61;49.83
68656;BME280;55638;51.122;13.606;2023-03-14T13:51:24;97869.91;;;15.69;49.27
68656;BME280;55638;51.122;13.606;2023-03-14T13:53:00;97869.44;;;15.79;48.88
68656;BME280;55638;51.122;13.606;2023-03-14T13:54:32;97880.28;;;15.86;48.53
68656;BME280;55638;51.122;13.606;2023-03-14T13:56:06;97883.59;;;15.88;48.01
68656;BME280;55638;51.122;13.606;2023-03-14T13:59:33;97890.69;;;15.89;47.49
68656;BME280;55638;51.122;13.606;2023-03-14T14:01:25;97889.25;;;15.86;47.16
68656;BME280;55638;51.122;13.606;2023-03-14T14:02:59;97876.97;;;15.84;47.13
68656;BME280;55638;51.122;13.606;2023-03-14T14:04:33;97883.66;;;15.81;46.82
68656;BME280;55638;51.122;13.606;2023-03-14T14:06:16;97880.59;;;15.71;44.92
68656;BME280;55638;51.122;13.606;2023-03-14T14:07:49;97874.97;;;15.66;47.26
68656;BME280;55638;51.122;13.606;2023-03-14T14:09:25;97870.19;;;15.61;47.97
68656;BME280;55638;51.122;13.606;2023-03-14T14:10:59;97876.25;;;15.57;47.85
68656;BME280;55638;51.122;13.606;2023-03-14T14:12:36;97859.56;;;15.53;47.44
68656;BME280;55638;51.122;13.606;2023-03-14T14:14:14;97847.69;;;15.54;47.77
68656;BME280;55638;51.122;13.606;2023-03-14T14:15:49;97849.53;;;15.53;47.63
68656;BME280;55638;51.122;13.606;2023-03-14T14:17:27;97849.34;;;15.55;47.71
68656;BME280;55638;51.122;13.606;2023-03-14T14:19:01;97839.69;;;15.59;48.54
68656;BME280;55638;51.122;13.606;2023-03-14T14:20:37;97849.94;;;15.64;48.10
68656;BME280;55638;51.122;13.606;2023-03-14T14:22:10;97851.94;;;15.75;49.04
68656;BME280;55638;51.122;13.606;2023-03-14T14:23:42;97856.66;;;15.86;47.89
68656;BME280;55638;51.122;13.606;2023-03-14T14:25:15;97855.97;;;15.97;47.46
68656;BME280;55638;51.122;13.606;2023-03-14T14:26:50;97857.94;;;16.09;47.60
68656;BME280;55638;51.122;13.606;2023-03-14T14:28:26;97857.41;;;16.25;47.54
68656;BME280;55638;51.122;13.606;2023-03-14T14:30:02;97853.56;;;16.39;47.31
68656;BME280;55638;51.122;13.606;2023-03-14T14:31:36;97849.66;;;16.54;47.66
68656;BME280;55638;51.122;13.606;2023-03-14T14:33:20;97864.56;;;16.69;46.95
68656;BME280;55638;51.122;13.606;2023-03-14T14:38:12;97865.66;;;17.05;44.17
68656;BME280;55638;51.122;13.606;2023-03-14T14:39:47;97863.91;;;17.11;44.39
68656;BME280;55638;51.122;13.606;2023-03-14T14:41:20;97865.78;;;17.17;45.41
68656;BME280;55638;51.122;13.606;2023-03-14T14:42:53;97862.34;;;17.22;45.61
68656;BME280;55638;51.122;13.606;2023-03-14T14:44:32;97857.44;;;17.30;44.78
68656;BME280;55638;51.122;13.606;2023-03-14T14:46:07;97863.16;;;17.40;45.54
68656;BME280;55638;51.122;13.606;2023-03-14T14:47:55;97863.31;;;17.46;43.64
68656;BME280;55638;51.122;13.606;2023-03-14T14:49:31;97867.75;;;17.58;43.16
68656;BME280;55638;51.122;13.606;2023-03-14T14:51:06;97854.88;;;17.66;43.52
68656;BME280;55638;51.122;13.606;2023-03-14T14:52:43;97851.25;;;17.72;43.64
68656;BME280;55638;51.122;13.606;2023-03-14T14:54:17;97844.00;;;17.77;44.08
68656;BME280;55638;51.122;13.606;2023-03-14T14:55:51;97850.44;;;17.83;44.23
68656;BME280;55638;51.122;13.606;2023-03-14T14:57:31;97845.34;;;17.86;43.27
68656;BME280;55638;51.122;13.606;2023-03-14T14:59:20;97843.81;;;17.91;42.80
68656;BME280;55638;51.122;13.606;2023-03-14T15:01:17;97842.91;;;17.97;43.93
68656;BME280;55638;51.122;13.606;2023-03-14T15:02:52;97845.16;;;18.00;43.40
68656;BME280;55638;51.122;13.606;2023-03-14T15:04:27;97834.88;;;18.02;43.96
68656;BME280;55638;51.122;13.606;2023-03-14T15:06:02;97844.97;;;18.01;43.94
68656;BME280;55638;51.122;13.606;2023-03-14T15:07:34;97852.16;;;17.96;43.11
68656;BME280;55638;51.122;13.606;2023-03-14T15:09:09;97849.50;;;17.89;42.06
68656;BME280;55638;51.122;13.606;2023-03-14T15:10:41;97841.91;;;17.79;43.12
68656;BME280;55638;51.122;13.606;2023-03-14T15:12:13;97856.69;;;17.72;43.11
68656;BME280;55638;51.122;13.606;2023-03-14T15:13:45;97855.56;;;17.61;42.52
68656;BME280;55638;51.122;13.606;2023-03-14T15:15:17;97857.41;;;17.49;42.02
68656;BME280;55638;51.122;13.606;2023-03-14T15:16:49;97850.84;;;17.38;42.36
68656;BME280;55638;51.122;13.606;2023-03-14T15:18:23;97852.91;;;17.24;42.32
68656;BME280;55638;51.122;13.606;2023-03-14T15:19:55;97861.19;;;17.11;42.66
68656;BME280;55638;51.122;13.606;2023-03-14T15:21:29;97865.13;;;16.97;42.62
68656;BME280;55638;51.122;13.606;2023-03-14T15:23:01;97863.84;;;16.81;42.56
68656;BME280;55638;51.122;13.606;2023-03-14T15:24:33;97857.09;;;16.65;43.13
68656;BME280;55638;51.122;13.606;2023-03-14T15:26:12;97863.56;;;16.45;42.40
68656;BME280;55638;51.122;13.606;2023-03-14T15:27:44;97850.25;;;16.31;43.40
68656;BME280;55638;51.122;13.606;2023-03-14T15:29:16;97862.50;;;16.15;43.46
68656;BME280;55638;51.122;13.606;2023-03-14T15:30:50;97862.03;;;15.99;43.26
68656;BME280;55638;51.122;13.606;2023-03-14T15:32:23;97853.94;;;15.86;44.16
68656;BME280;55638;51.122;13.606;2023-03-14T15:33:55;97860.50;;;15.72;43.98
68656;BME280;55638;51.122;13.606;2023-03-14T15:35:27;97862.25;;;15.60;44.38
68656;BME280;55638;51.122;13.606;2023-03-14T15:36:59;97859.38;;;15.48;44.56
68656;BME280;55638;51.122;13.606;2023-03-14T15:38:30;97862.16;;;15.35;45.04
68656;BME280;55638;51.122;13.606;2023-03-14T15:40:04;97860.94;;;15.24;45.00
68656;BME280;55638;51.122;13.606;2023-03-14T15:41:43;97864.31;;;15.13;45.21
68656;BME280;55638;51.122;13.606;2023-03-14T15:43:15;97868.53;;;15.02;45.13
68656;BME280;55638;51.122;13.606;2023-03-14T15:44:47;97872.72;;;14.91;45.17
68656;BME280;55638;51.122;13.606;2023-03-14T15:46:19;97870.47;;;14.81;45.15
68656;BME280;55638;51.122;13.606;2023-03-14T15:47:53;97876.13;;;14.73;45.42
68656;BME280;55638;51.122;13.606;2023-03-14T15:49:25;97879.03;;;14.65;45.63
68656;BME280;55638;51.122;13.606;2023-03-14T15:50:56;97885.69;;;14.56;45.56
68656;BME280;55638;51.122;13.606;2023-03-14T15:52:28;97878.84;;;14.47;45.77
68656;BME280;55638;51.122;13.606;2023-03-14T15:54:00;97883.81;;;14.36;45.76
68656;BME280;55638;51.122;13.606;2023-03-14T15:55:32;97877.81;;;14.28;45.84
68656;BME280;55638;51.122;13.606;2023-03-14T15:57:04;97886.13;;;14.20;46.12
68656;BME280;55638;51.122;13.606;2023-03-14T15:58:38;97886.94;;;14.13;46.33
68656;BME280;55638;51.122;13.606;2023-03-14T16:00:15;97881.94;;;14.04;45.99
68656;BME280;55638;51.122;13.606;2023-03-14T16:01:49;97891.09;;;13.96;46.33
68656;BME280;55638;51.122;13.606;2023-03-14T16:03:21;97895.69;;;13.89;46.22
68656;BME280;55638;51.122;13.606;2023-03-14T16:04:52;97902.75;;;13.83;46.77
68656;BME280;55638;51.122;13.606;2023-03-14T16:06:24;97894.59;;;13.77;46.64
68656;BME280;55638;51.122;13.606;2023-03-14T16:07:56;97908.94;;;13.71;46.66
68656;BME280;55638;51.122;13.606;2023-03-14T16:09:28;97928.69;;;13.64;46.94
68656;BME280;55638;51.122;13.606;2023-03-14T16:11:00;97922.41;;;13.57;46.82
68656;BME280;55638;51.122;13.606;2023-03-14T16:12:33;97931.34;;;13.51;47.08
68656;BME280;55638;51.122;13.606;2023-03-14T16:14:05;97934.25;;;13.43;46.84
68656;BME280;55638;51.122;13.606;2023-03-14T16:15:37;97944.00;;;13.37;47.08
68656;BME280;55638;51.122;13.606;2023-03-14T16:17:09;97953.56;;;13.33;47.05
68656;BME280;55638;51.122;13.606;2023-03-14T16:18:42;97973.28;;;13.27;47.29
68656;BME280;55638;51.122;13.606;2023-03-14T16:20:14;97980.31;;;13.21;47.24
68656;BME280;55638;51.122;13.606;2023-03-14T16:21:46;98004.63;;;13.15;47.26
68656;BME280;55638;51.122;13.606;2023-03-14T16:23:17;97977.31;;;13.10;47.71
68656;BME280;55638;51.122;13.606;2023-03-14T16:24:49;97992.50;;;13.04;47.82
68656;BME280;55638;51.122;13.606;2023-03-14T16:26:21;97992.25;;;12.99;47.90
68656;BME280;55638;51.122;13.606;2023-03-14T16:27:53;98004.69;;;12.93;48.11
68656;BME280;55638;51.122;13.606;2023-03-14T16:29:41;98005.47;;;12.87;48.47
68656;BME280;55638;51.122;13.606;2023-03-14T16:31:16;98024.16;;;12.82;48.72
68656;BME280;55638;51.122;13.606;2023-03-14T16:32:49;98027.81;;;12.74;49.05
68656;BME280;55638;51.122;13.606;2023-03-14T16:34:21;98133.34;;;12.66;49.35
68656;BME280;55638;51.122;13.606;2023-03-14T16:35:54;98142.78;;;12.56;47.57
68656;BME280;55638;51.122;13.606;2023-03-14T16:37:26;98156.53;;;12.39;46.76
68656;BME280;55638;51.122;13.606;2023-03-14T16:38:58;98159.38;;;12.16;45.98
68656;BME280;55638;51.122;13.606;2023-03-14T16:40:30;98166.44;;;11.88;46.01
68656;BME280;55638;51.122;13.606;2023-03-14T16:42:02;98171.34;;;11.54;45.87
68656;BME280;55638;51.122;13.606;2023-03-14T16:43:34;98188.16;;;11.19;46.07
68656;BME280;55638;51.122;13.606;2023-03-14T16:45:08;98194.31;;;10.81;46.50
68656;BME280;55638;51.122;13.606;2023-03-14T16:46:40;98197.72;;;10.44;46.70
68656;BME280;55638;51.122;13.606;2023-03-14T16:48:12;98201.75;;;10.09;47.21
68656;BME280;55638;51.122;13.606;2023-03-14T16:49:44;98207.56;;;9.73;47.85
68656;BME280;55638;51.122;13.606;2023-03-14T16:51:16;98215.63;;;9.40;48.31
68656;BME280;55638;51.122;13.606;2023-03-14T16:52:47;98223.84;;;9.06;48.98
68656;BME280;55638;51.122;13.606;2023-03-14T16:54:20;98238.06;;;8.74;49.61
68656;BME280;55638;51.122;13.606;2023-03-14T16:55:52;98245.53;;;8.46;50.13
68656;BME280;55638;51.122;13.606;2023-03-14T16:57:23;98268.53;;;8.22;50.64
68656;BME280;55638;51.122;13.606;2023-03-14T16:58:55;98275.63;;;7.97;51.55
68656;BME280;55638;51.122;13.606;2023-03-14T17:00:27;98268.09;;;7.75;52.30
68656;BME280;55638;51.122;13.606;2023-03-14T17:01:59;98291.59;;;7.55;52.30
68656;BME280;55638;51.122;13.606;2023-03-14T17:03:31;98294.59;;;7.34;53.03
68656;BME280;55638;51.122;13.606;2023-03-14T17:05:03;98318.72;;;7.16;53.33
68656;BME280;55638;51.122;13.606;2023-03-14T17:06:35;98318.38;;;7.01;53.52
68656;BME280;55638;51.122;13.606;2023-03-14T17:08:07;98340.31;;;6.87;54.16
68656;BME280;55638;51.122;13.606;2023-03-14T17:09:39;98349.50;;;6.75;54.16
68656;BME280;55638;51.122;13.606;2023-03-14T17:11:10;98362.25;;;6.63;54.52
68656;BME280;55638;51.122;13.606;2023-03-14T17:12:43;98370.47;;;6.52;54.60
68656;BME280;55638;51.122;13.606;2023-03-14T17:14:15;98365.28;;;6.40;55.16
68656;BME280;55638;51.122;13.606;2023-03-14T17:15:52;98408.13;;;6.31;55.29
68656;BME280;55638;51.122;13.606;2023-03-14T17:17:24;98415.88;;;6.24;55.36
68656;BME280;55638;51.122;13.606;2023-03-14T17:18:56;98428.59;;;6.12;55.55
68656;BME280;55638;51.122;13.606;2023-03-14T17:20:28;98440.16;;;6.03;55.52
68656;BME280;55638;51.122;13.606;2023-03-14T17:22:00;98458.59;;;5.96;55.60
68656;BME280;55638;51.122;13.606;2023-03-14T17:23:52;98472.09;;;5.85;55.55
68656;BME280;55638;51.122;13.606;2023-03-14T17:25:24;98503.19;;;5.76;55.61
68656;BME280;55638;51.122;13.606;2023-03-14T17:26:56;98513.88;;;5.67;55.71
68656;BME280;55638;51.122;13.606;2023-03-14T17:28:27;98547.03;;;5.55;56.57
68656;BME280;55638;51.122;13.606;2023-03-14T17:30:02;98559.38;;;5.46;55.55
68656;BME280;55638;51.122;13.606;2023-03-14T17:31:35;98569.59;;;5.31;54.99
68656;BME280;55638;51.122;13.606;2023-03-14T17:33:07;98595.09;;;5.14;54.91
68656;BME280;55638;51.122;13.606;2023-03-14T17:34:39;98605.13;;;5.01;54.44
68656;BME280;55638;51.122;13.606;2023-03-14T17:36:11;98614.13;;;4.79;54.53
68656;BME280;55638;51.122;13.606;2023-03-14T17:37:46;98643.44;;;4.58;54.82
68656;BME280;55638;51.122;13.606;2023-03-14T17:39:18;98652.00;;;4.41;54.97
68656;BME280;55638;51.122;13.606;2023-03-14T17:40:50;98648.44;;;4.19;55.19
68656;BME280;55638;51.122;13.606;2023-03-14T17:42:22;98650.88;;;4.00;55.40
68656;BME280;55638;51.122;13.606;2023-03-14T17:43:53;98668.97;;;3.85;55.82
68656;BME280;55638;51.122;13.606;2023-03-14T17:45:25;98686.44;;;3.66;56.14
68656;BME280;55638;51.122;13.606;2023-03-14T17:46:58;98668.88;;;3.53;56.81
68656;BME280;55638;51.122;13.606;2023-03-14T17:48:32;98684.00;;;3.41;56.81
68656;BME280;55638;51.122;13.606;2023-03-14T17:50:04;98692.78;;;3.30;57.00
68656;BME280;55638;51.122;13.606;2023-03-14T17:51:36;98698.22;;;3.17;57.65
68656;BME280;55638;51.122;13.606;2023-03-14T17:53:08;98708.47;;;3.11;57.33
68656;BME280;55638;51.122;13.606;2023-03-14T17:54:39;98725.16;;;3.02;57.69
68656;BME280;55638;51.122;13.606;2023-03-14T17:56:11;98732.88;;;2.93;57.67
68656;BME280;55638;51.122;13.606;2023-03-14T17:57:43;98735.84;;;2.89;57.93
68656;BME280;55638;51.122;13.606;2023-03-14T17:59:15;98736.22;;;2.84;58.14
68656;BME280;55638;51.122;13.606;2023-03-14T18:00:47;98749.84;;;2.80;58.02
68656;BME280;55638;51.122;13.606;2023-03-14T18:02:20;98753.09;;;2.72;58.63
68656;BME280;55638;51.122;13.606;2023-03-14T18:03:52;98759.59;;;2.68;58.47
68656;BME280;55638;51.122;13.606;2023-03-14T18:05:26;98773.13;;;2.65;58.48
68656;BME280;55638;51.122;13.606;2023-03-14T18:06:58;98784.97;;;2.61;58.88
68656;BME280;55638;51.122;13.606;2023-03-14T18:08:30;98782.63;;;2.56;58.78
68656;BME280;55638;51.122;13.606;2023-03-14T18:10:03;98796.91;;;2.55;58.74
68656;BME280;55638;51.122;13.606;2023-03-14T18:11:36;98805.94;;;2.53;58.94
68656;BME280;55638;51.122;13.606;2023-03-14T18:13:08;98806.91;;;2.52;59.01
68656;BME280;55638;51.122;13.606;2023-03-14T18:14:39;98816.81;;;2.49;59.02
68656;BME280;55638;51.122;13.606;2023-03-14T18:16:15;98820.44;;;2.48;59.02
68656;BME280;55638;51.122;13.606;2023-03-14T18:17:47;98825.00;;;2.46;59.28
68656;BME280;55638;51.122;13.606;2023-03-14T18:19:19;98826.06;;;2.44;59.37
68656;BME280;55638;51.122;13.606;2023-03-14T18:20:52;98836.81;;;2.42;59.50
68656;BME280;55638;51.122;13.606;2023-03-14T18:22:24;98836.91;;;2.41;59.70
68656;BME280;55638;51.122;13.606;2023-03-14T18:23:56;98854.59;;;2.42;59.55
68656;BME280;55638;51.122;13.606;2023-03-14T18:25:28;98855.44;;;2.42;59.69
68656;BME280;55638;51.122;13.606;2023-03-14T18:27:00;98860.00;;;2.40;59.52
68656;BME280;55638;51.122;13.606;2023-03-14T18:28:32;98861.94;;;2.38;60.11
68656;BME280;55638;51.122;13.606;2023-03-14T18:30:04;98868.94;;;2.39;60.01
68656;BME280;55638;51.122;13.606;2023-03-14T18:31:36;98867.25;;;2.38;60.18
68656;BME280;55638;51.122;13.606;2023-03-14T18:33:08;98872.66;;;2.37;60.22
68656;BME280;55638;51.122;13.606;2023-03-14T18:34:40;98882.47;;;2.36;60.04
68656;BME280;55638;51.122;13.606;2023-03-14T18:36:14;98893.09;;;2.36;60.10
68656;BME280;55638;51.122;13.606;2023-03-14T18:37:46;98905.63;;;2.34;59.90
68656;BME280;55638;51.122;13.606;2023-03-14T18:39:17;98912.91;;;2.32;60.14
68656;BME280;55638;51.122;13.606;2023-03-14T18:40:49;98905.84;;;2.31;59.95
68656;BME280;55638;51.122;13.606;2023-03-14T18:42:21;98913.09;;;2.29;60.05
68656;BME280;55638;51.122;13.606;2023-03-14T18:43:53;98925.66;;;2.27;60.01
68656;BME280;55638;51.122;13.606;2023-03-14T18:45:25;98932.91;;;2.25;60.23
68656;BME280;55638;51.122;13.606;2023-03-14T18:46:57;98936.50;;;2.24;60.07
68656;BME280;55638;51.122;13.606;2023-03-14T18:48:29;98941.09;;;2.22;60.01
68656;BME280;55638;51.122;13.606;2023-03-14T18:50:03;98935.00;;;2.20;60.32
68656;BME280;55638;51.122;13.606;2023-03-14T18:51:35;98938.63;;;2.19;60.24
68656;BME280;55638;51.122;13.606;2023-03-14T18:53:07;98946.69;;;2.17;60.23
68656;BME280;55638;51.122;13.606;2023-03-14T18:54:38;98941.28;;;2.19;60.23
68656;BME280;55638;51.122;13.606;2023-03-14T18:56:10;98937.88;;;2.17;60.36
68656;BME280;55638;51.122;13.606;2023-03-14T18:57:44;98938.00;;;2.15;60.59
68656;BME280;55638;51.122;13.606;2023-03-14T18:59:16;98951.16;;;2.17;60.55
68656;BME280;55638;51.122;13.606;2023-03-14T19:00:48;98954.78;;;2.16;60.57
68656;BME280;55638;51.122;13.606;2023-03-14T19:02:20;98952.97;;;2.16;60.69
68656;BME280;55638;51.122;13.606;2023-03-14T19:03:51;98960.00;;;2.17;60.78
68656;BME280;55638;51.122;13.606;2023-03-14T19:05:23;98965.31;;;2.17;60.64
68656;BME280;55638;51.122;13.606;2023-03-14T19:06:55;98960.00;;;2.17;60.62
68656;BME280;55638;51.122;13.606;2023-03-14T19:08:27;98976.69;;;2.19;60.75
68656;BME280;55638;51.122;13.606;2023-03-14T19:10:00;98969.56;;;2.20;60.75
68656;BME280;55638;51.122;13.606;2023-03-14T19:11:32;98976.59;;;2.21;61.01
68656;BME280;55638;51.122;13.606;2023-03-14T19:13:03;98970.31;;;2.22;60.92
68656;BME280;55638;51.122;13.606;2023-03-14T19:14:35;98975.66;;;2.22;61.07
68656;BME280;55638;51.122;13.606;2023-03-14T19:16:10;98974.56;;;2.24;61.27
68656;BME280;55638;51.122;13.606;2023-03-14T19:17:43;98974.56;;;2.24;60.93
68656;BME280;55638;51.122;13.606;2023-03-14T19:19:15;98984.13;;;2.27;61.11
68656;BME280;55638;51.122;13.606;2023-03-14T19:20:59;98986.72;;;2.29;60.94
68656;BME280;55638;51.122;13.606;2023-03-14T19:22:31;98993.59;;;2.31;61.00
68656;BME280;55638;51.122;13.606;2023-03-14T19:24:03;98997.97;;;2.32;61.05
68656;BME280;55638;51.122;13.606;2023-03-14T19:25:36;99001.38;;;2.34;60.88
68656;BME280;55638;51.122;13.606;2023-03-14T19:27:08;98996.06;;;2.34;60.85
68656;BME280;55638;51.122;13.606;2023-03-14T19:28:39;99013.72;;;2.35;61.03
68656;BME280;55638;51.122;13.606;2023-03-14T19:30:11;99020.75;;;2.36;60.87
68656;BME280;55638;51.122;13.606;2023-03-14T19:31:43;99015.44;;;2.36;61.07
68656;BME280;55638;51.122;13.606;2023-03-14T19:33:16;99021.59;;;2.37;61.01
68656;BME280;55638;51.122;13.606;2023-03-14T19:34:47;99028.63;;;2.38;60.81
68656;BME280;55638;51.122;13.606;2023-03-14T19:36:27;99032.97;;;2.39;60.96
68656;BME280;55638;51.122;13.606;2023-03-14T19:37:59;99033.84;;;2.39;60.94
68656;BME280;55638;51.122;13.606;2023-03-14T19:39:31;99035.66;;;2.39;60.88
68656;BME280;55638;51.122;13.606;2023-03-14T19:41:03;99044.47;;;2.39;60.66
68656;BME280;55638;51.122;13.606;2023-03-14T19:42:35;99042.78;;;2.38;60.66
68656;BME280;55638;51.122;13.606;2023-03-14T19:44:07;99049.91;;;2.38;60.70
68656;BME280;55638;51.122;13.606;2023-03-14T19:45:40;99059.59;;;2.39;60.66
68656;BME280;55638;51.122;13.606;2023-03-14T19:47:13;99057.00;;;2.37;60.50
68656;BME280;55638;51.122;13.606;2023-03-14T19:48:45;99056.28;;;2.35;60.42
68656;BME280;55638;51.122;13.606;2023-03-14T19:50:16;99058.19;;;2.33;60.52
68656;BME280;55638;51.122;13.606;2023-03-14T19:51:48;99069.78;;;2.32;60.40
68656;BME280;55638;51.122;13.606;2023-03-14T19:53:20;99075.09;;;2.32;60.29
68656;BME280;55638;51.122;13.606;2023-03-14T19:54:52;99084.13;;;2.30;60.36
68656;BME280;55638;51.122;13.606;2023-03-14T19:56:25;99075.50;;;2.26;60.65
68656;BME280;55638;51.122;13.606;2023-03-14T19:57:56;99080.91;;;2.24;60.55
68656;BME280;55638;51.122;13.606;2023-03-14T19:59:28;99083.56;;;2.24;60.63
68656;BME280;55638;51.122;13.606;2023-03-14T20:01:00;99093.56;;;2.21;60.43
68656;BME280;55638;51.122;13.606;2023-03-14T20:02:33;99095.50;;;2.19;60.60
68656;BME280;55638;51.122;13.606;2023-03-14T20:04:04;99099.06;;;2.18;60.40
68656;BME280;55638;51.122;13.606;2023-03-14T20:05:40;99101.84;;;2.16;60.61
68656;BME280;55638;51.122;13.606;2023-03-14T20:07:12;99101.94;;;2.15;60.49
68656;BME280;55638;51.122;13.606;2023-03-14T20:08:44;99101.94;;;2.15;60.50
68656;BME280;55638;51.122;13.606;2023-03-14T20:10:18;99102.16;;;2.12;60.55
68656;BME280;55638;51.122;13.606;2023-03-14T20:11:51;99107.56;;;2.10;60.78
68656;BME280;55638;51.122;13.606;2023-03-14T20:13:22;99120.97;;;2.09;60.78
68656;BME280;55638;51.122;13.606;2023-03-14T20:14:54;99119.25;;;2.08;60.77
68656;BME280;55638;51.122;13.606;2023-03-14T20:16:26;99121.91;;;2.08;60.57
68656;BME280;55638;51.122;13.606;2023-03-14T20:17:58;99122.97;;;2.05;60.60
68656;BME280;55638;51.122;13.606;2023-03-14T20:19:30;99137.13;;;2.06;60.65
68656;BME280;55638;51.122;13.606;2023-03-14T20:21:08;99140.72;;;2.05;60.66
68656;BME280;55638;51.122;13.606;2023-03-14T20:22:40;99143.38;;;2.05;60.70
68656;BME280;55638;51.122;13.606;2023-03-14T20:24:12;99155.94;;;2.02;60.64
68656;BME280;55638;51.122;13.606;2023-03-14T20:25:55;99157.75;;;2.02;60.68
68656;BME280;55638;51.122;13.606;2023-03-14T20:27:27;99164.84;;;2.01;60.80
68656;BME280;55638;51.122;13.606;2023-03-14T20:28:59;99166.56;;;2.02;60.59
68656;BME280;55638;51.122;13.606;2023-03-14T20:30:31;99159.50;;;2.01;60.67
68656;BME280;55638;51.122;13.606;2023-03-14T20:32:03;99163.97;;;2.01;60.65
68656;BME280;55638;51.122;13.606;2023-03-14T20:33:37;99172.91;;;2.00;60.59
68656;BME280;55638;51.122;13.606;2023-03-14T20:35:10;99161.44;;;1.99;60.70
68656;BME280;55638;51.122;13.606;2023-03-14T20:36:42;99170.34;;;1.98;60.82
68656;BME280;55638;51.122;13.606;2023-03-14T20:38:15;99172.28;;;1.96;60.52
68656;BME280;55638;51.122;13.606;2023-03-14T20:39:47;99166.09;;;1.96;60.66
68656;BME280;55638;51.122;13.606;2023-03-14T20:41:19;99175.78;;;1.97;60.36
68656;BME280;55638;51.122;13.606;2023-03-14T20:42:51;99181.16;;;1.95;60.49
68656;BME280;55638;51.122;13.606;2023-03-14T20:44:23;99184.78;;;1.94;60.46